Terminal Aerodrome Forecast
Issued by NWS Lake Charles, LA

Home | Current Version | Previous Version | Text Only | Print | Product List | Glossary On
Versions: 1 2 3 4 5 6 7 8 9 10 11 12 13 14 15 16 17 18 19 20 21 22 23 24 25
000
FTUS44 KLCH 291135
TAFBPT
TAF
KBPT 291135Z 2912/3012 15012G18KT P6SM BKN015
     FM291500 15015G22KT P6SM BKN025
     FM291700 15018G26KT P6SM SCT025 BKN050
     FM300100 16016G24KT P6SM VCSH BKN030
     FM300400 15014G20KT 4SM SHRA SCT009 OVC020=

USA.gov is the U.S. government's official web portal to all federal, state and local government web resources and services.